sensor_id;sensor_type;location;lat;lon;timestamp;P1;durP1;ratioP1;P2;durP2;ratioP2
38865;SDS011;62686;48.984;8.394;2022-08-16T12:19:32;3.63;;;2.00;;
38865;SDS011;62686;48.984;8.394;2022-08-16T12:22:01;4.45;;;2.00;;
38865;SDS011;62686;48.984;8.394;2022-08-16T12:26:56;4.47;;;1.70;;
38865;SDS011;62686;48.984;8.394;2022-08-16T12:29:31;3.03;;;1.75;;
38865;SDS011;62686;48.984;8.394;2022-08-16T12:32:07;2.08;;;1.85;;
38865;SDS011;62686;48.984;8.394;2022-08-16T12:34:44;2.75;;;2.00;;
38865;SDS011;62686;48.984;8.394;2022-08-16T12:37:13;4.07;;;1.95;;
38865;SDS011;62686;48.984;8.394;2022-08-16T12:39:47;2.47;;;1.80;;
38865;SDS011;62686;48.984;8.394;2022-08-16T12:42:18;2.50;;;1.70;;
38865;SDS011;62686;48.984;8.394;2022-08-16T12:44:51;4.05;;;1.75;;
38865;SDS011;62686;48.984;8.394;2022-08-16T12:47:24;2.88;;;1.60;;
38865;SDS011;62686;48.984;8.394;2022-08-16T12:50:10;4.40;;;1.70;;
38865;SDS011;62686;48.984;8.394;2022-08-16T12:52:40;3.88;;;1.67;;
38865;SDS011;62686;48.984;8.394;2022-08-16T12:55:10;5.10;;;2.10;;
38865;SDS011;62686;48.984;8.394;2022-08-16T12:57:41;2.80;;;1.60;;
38865;SDS011;62686;48.984;8.394;2022-08-16T13:00:11;5.97;;;2.00;;
38865;SDS011;62686;48.984;8.394;2022-08-16T13:02:44;4.32;;;1.90;;
38865;SDS011;62686;48.984;8.394;2022-08-16T13:05:26;6.60;;;1.67;;
38865;SDS011;62686;48.984;8.394;2022-08-16T13:08:11;2.45;;;1.63;;
38865;SDS011;62686;48.984;8.394;2022-08-16T13:10:44;5.07;;;1.63;;
38865;SDS011;62686;48.984;8.394;2022-08-16T13:14:00;7.03;;;1.90;;
38865;SDS011;62686;48.984;8.394;2022-08-16T13:16:28;2.58;;;1.98;;
38865;SDS011;62686;48.984;8.394;2022-08-16T13:18:56;3.85;;;1.70;;
38865;SDS011;62686;48.984;8.394;2022-08-16T13:21:24;2.33;;;1.70;;
38865;SDS011;62686;48.984;8.394;2022-08-16T13:23:52;2.00;;;1.58;;
38865;SDS011;62686;48.984;8.394;2022-08-16T13:26:21;3.78;;;1.70;;
38865;SDS011;62686;48.984;8.394;2022-08-16T13:28:50;3.75;;;1.85;;
38865;SDS011;62686;48.984;8.394;2022-08-16T13:31:19;3.45;;;1.55;;
38865;SDS011;62686;48.984;8.394;2022-08-16T13:33:48;1.70;;;1.40;;
38865;SDS011;62686;48.984;8.394;2022-08-16T13:36:16;2.78;;;1.52;;
38865;SDS011;62686;48.984;8.394;2022-08-16T13:38:57;1.92;;;1.55;;
38865;SDS011;62686;48.984;8.394;2022-08-16T13:41:26;2.15;;;1.70;;
38865;SDS011;62686;48.984;8.394;2022-08-16T13:43:54;1.92;;;1.45;;
38865;SDS011;62686;48.984;8.394;2022-08-16T13:46:24;2.47;;;1.50;;
38865;SDS011;62686;48.984;8.394;2022-08-16T13:48:52;2.97;;;1.50;;
38865;SDS011;62686;48.984;8.394;2022-08-16T13:51:21;2.78;;;1.50;;
38865;SDS011;62686;48.984;8.394;2022-08-16T13:53:54;2.88;;;1.45;;
38865;SDS011;62686;48.984;8.394;2022-08-16T13:56:23;1.83;;;1.48;;
38865;SDS011;62686;48.984;8.394;2022-08-16T13:58:51;6.07;;;1.60;;
38865;SDS011;62686;48.984;8.394;2022-08-16T14:01:20;4.63;;;1.40;;
38865;SDS011;62686;48.984;8.394;2022-08-16T14:03:50;7.40;;;1.70;;
38865;SDS011;62686;48.984;8.394;2022-08-16T14:06:19;2.92;;;1.40;;
38865;SDS011;62686;48.984;8.394;2022-08-16T14:08:47;3.03;;;1.48;;
38865;SDS011;62686;48.984;8.394;2022-08-16T14:11:16;1.75;;;1.42;;
38865;SDS011;62686;48.984;8.394;2022-08-16T14:13:44;2.70;;;1.58;;
38865;SDS011;62686;48.984;8.394;2022-08-16T14:16:12;7.47;;;1.60;;
38865;SDS011;62686;48.984;8.394;2022-08-16T14:18:41;4.00;;;1.30;;
38865;SDS011;62686;48.984;8.394;2022-08-16T14:21:10;2.55;;;1.50;;
38865;SDS011;62686;48.984;8.394;2022-08-16T14:23:38;1.50;;;1.40;;
38865;SDS011;62686;48.984;8.394;2022-08-16T14:26:07;2.15;;;1.42;;
38865;SDS011;62686;48.984;8.394;2022-08-16T14:28:35;3.22;;;1.65;;
38865;SDS011;62686;48.984;8.394;2022-08-16T14:31:03;4.22;;;1.40;;
38865;SDS011;62686;48.984;8.394;2022-08-16T14:33:31;2.97;;;1.55;;
38865;SDS011;62686;48.984;8.394;2022-08-16T14:36:00;1.63;;;1.45;;
38865;SDS011;62686;48.984;8.394;2022-08-16T14:38:29;2.42;;;1.50;;
38865;SDS011;62686;48.984;8.394;2022-08-16T14:40:58;3.58;;;1.50;;
38865;SDS011;62686;48.984;8.394;2022-08-16T14:43:26;2.05;;;1.42;;
38865;SDS011;62686;48.984;8.394;2022-08-16T14:45:54;1.90;;;1.27;;
38865;SDS011;62686;48.984;8.394;2022-08-16T14:48:22;2.38;;;1.42;;
38865;SDS011;62686;48.984;8.394;2022-08-16T14:50:52;5.10;;;1.77;;
38865;SDS011;62686;48.984;8.394;2022-08-16T14:53:20;1.98;;;1.50;;
38865;SDS011;62686;48.984;8.394;2022-08-16T14:55:51;2.33;;;1.52;;
38865;SDS011;62686;48.984;8.394;2022-08-16T14:58:19;2.10;;;1.55;;
38865;SDS011;62686;48.984;8.394;2022-08-16T15:00:49;4.13;;;1.60;;
38865;SDS011;62686;48.984;8.394;2022-08-16T15:03:18;3.97;;;1.60;;
38865;SDS011;62686;48.984;8.394;2022-08-16T15:05:48;4.88;;;1.40;;
38865;SDS011;62686;48.984;8.394;2022-08-16T15:08:16;3.22;;;1.60;;
38865;SDS011;62686;48.984;8.394;2022-08-16T15:10:45;2.95;;;1.63;;
38865;SDS011;62686;48.984;8.394;2022-08-16T15:13:16;3.85;;;1.75;;
38865;SDS011;62686;48.984;8.394;2022-08-16T15:15:45;3.67;;;1.50;;
38865;SDS011;62686;48.984;8.394;2022-08-16T15:18:16;2.13;;;1.50;;
38865;SDS011;62686;48.984;8.394;2022-08-16T15:20:45;2.88;;;1.50;;
38865;SDS011;62686;48.984;8.394;2022-08-16T15:23:13;4.07;;;1.50;;
38865;SDS011;62686;48.984;8.394;2022-08-16T15:25:42;3.38;;;1.60;;
38865;SDS011;62686;48.984;8.394;2022-08-16T15:28:13;4.90;;;1.75;;
38865;SDS011;62686;48.984;8.394;2022-08-16T15:30:43;2.75;;;1.40;;
38865;SDS011;62686;48.984;8.394;2022-08-16T15:33:12;1.58;;;1.40;;
38865;SDS011;62686;48.984;8.394;2022-08-16T15:35:42;4.75;;;1.65;;
38865;SDS011;62686;48.984;8.394;2022-08-16T15:38:12;2.63;;;1.40;;
38865;SDS011;62686;48.984;8.394;2022-08-16T15:40:41;2.28;;;1.45;;
38865;SDS011;62686;48.984;8.394;2022-08-16T15:43:09;3.45;;;1.70;;
38865;SDS011;62686;48.984;8.394;2022-08-16T15:45:38;4.32;;;1.80;;
38865;SDS011;62686;48.984;8.394;2022-08-16T15:48:24;1.95;;;1.45;;
38865;SDS011;62686;48.984;8.394;2022-08-16T15:50:56;2.30;;;1.65;;
38865;SDS011;62686;48.984;8.394;2022-08-16T15:53:25;2.85;;;1.60;;
38865;SDS011;62686;48.984;8.394;2022-08-16T15:55:56;2.70;;;1.60;;
38865;SDS011;62686;48.984;8.394;2022-08-16T15:58:26;2.85;;;1.70;;
38865;SDS011;62686;48.984;8.394;2022-08-16T16:00:56;1.90;;;1.40;;
38865;SDS011;62686;48.984;8.394;2022-08-16T16:03:27;2.42;;;1.70;;
38865;SDS011;62686;48.984;8.394;2022-08-16T16:05:56;3.47;;;1.70;;
38865;SDS011;62686;48.984;8.394;2022-08-16T16:08:26;4.50;;;1.80;;
38865;SDS011;62686;48.984;8.394;2022-08-16T16:10:56;4.03;;;1.63;;
38865;SDS011;62686;48.984;8.394;2022-08-16T16:13:25;3.13;;;2.00;;
38865;SDS011;62686;48.984;8.394;2022-08-16T16:15:55;2.60;;;1.75;;
38865;SDS011;62686;48.984;8.394;2022-08-16T16:18:27;4.72;;;1.88;;
38865;SDS011;62686;48.984;8.394;2022-08-16T16:20:59;3.38;;;1.80;;
38865;SDS011;62686;48.984;8.394;2022-08-16T16:23:30;2.00;;;1.80;;
38865;SDS011;62686;48.984;8.394;2022-08-16T16:25:59;3.08;;;1.90;;
38865;SDS011;62686;48.984;8.394;2022-08-16T16:28:29;5.53;;;1.83;;
38865;SDS011;62686;48.984;8.394;2022-08-16T16:30:59;4.03;;;2.28;;
38865;SDS011;62686;48.984;8.394;2022-08-16T16:33:32;3.13;;;1.75;;
38865;SDS011;62686;48.984;8.394;2022-08-16T16:36:04;4.80;;;2.30;;
38865;SDS011;62686;48.984;8.394;2022-08-16T16:38:33;4.20;;;1.80;;
38865;SDS011;62686;48.984;8.394;2022-08-16T16:41:03;3.97;;;2.08;;
38865;SDS011;62686;48.984;8.394;2022-08-16T16:43:35;2.53;;;1.80;;
38865;SDS011;62686;48.984;8.394;2022-08-16T16:46:04;8.25;;;2.33;;
38865;SDS011;62686;48.984;8.394;2022-08-16T16:48:34;3.53;;;2.10;;
38865;SDS011;62686;48.984;8.394;2022-08-16T16:51:04;2.88;;;2.10;;
38865;SDS011;62686;48.984;8.394;2022-08-16T16:53:35;7.32;;;2.50;;
38865;SDS011;62686;48.984;8.394;2022-08-16T16:56:06;3.35;;;2.15;;
38865;SDS011;62686;48.984;8.394;2022-08-16T16:58:36;5.45;;;2.42;;
38865;SDS011;62686;48.984;8.394;2022-08-16T17:01:25;2.70;;;1.85;;
38865;SDS011;62686;48.984;8.394;2022-08-16T17:04:00;3.85;;;2.10;;
38865;SDS011;62686;48.984;8.394;2022-08-16T17:06:29;6.60;;;2.35;;
38865;SDS011;62686;48.984;8.394;2022-08-16T17:08:58;5.53;;;2.20;;
38865;SDS011;62686;48.984;8.394;2022-08-16T17:11:26;4.28;;;2.22;;
38865;SDS011;62686;48.984;8.394;2022-08-16T17:13:55;4.07;;;2.38;;
38865;SDS011;62686;48.984;8.394;2022-08-16T17:16:23;2.67;;;2.08;;
38865;SDS011;62686;48.984;8.394;2022-08-16T17:18:52;4.00;;;1.88;;
38865;SDS011;62686;48.984;8.394;2022-08-16T17:21:23;4.30;;;2.28;;
38865;SDS011;62686;48.984;8.394;2022-08-16T17:23:51;4.50;;;2.10;;
38865;SDS011;62686;48.984;8.394;2022-08-16T17:26:20;6.00;;;2.30;;
38865;SDS011;62686;48.984;8.394;2022-08-16T17:28:49;4.40;;;2.15;;
38865;SDS011;62686;48.984;8.394;2022-08-16T17:31:18;3.63;;;2.50;;
38865;SDS011;62686;48.984;8.394;2022-08-16T17:33:46;3.67;;;2.13;;
38865;SDS011;62686;48.984;8.394;2022-08-16T17:36:16;6.00;;;2.20;;
38865;SDS011;62686;48.984;8.394;2022-08-16T17:38:46;5.13;;;2.20;;
38865;SDS011;62686;48.984;8.394;2022-08-16T17:41:14;3.15;;;2.15;;
38865;SDS011;62686;48.984;8.394;2022-08-16T17:43:42;3.28;;;1.90;;
38865;SDS011;62686;48.984;8.394;2022-08-16T17:46:12;4.13;;;2.47;;
38865;SDS011;62686;48.984;8.394;2022-08-16T17:48:41;2.70;;;2.10;;
38865;SDS011;62686;48.984;8.394;2022-08-16T17:51:10;2.83;;;2.28;;
38865;SDS011;62686;48.984;8.394;2022-08-16T17:53:39;4.70;;;2.58;;
38865;SDS011;62686;48.984;8.394;2022-08-16T17:56:10;4.18;;;2.20;;
38865;SDS011;62686;48.984;8.394;2022-08-16T17:58:38;3.72;;;2.25;;
38865;SDS011;62686;48.984;8.394;2022-08-16T18:01:06;2.75;;;2.05;;
38865;SDS011;62686;48.984;8.394;2022-08-16T18:03:36;3.53;;;1.98;;
38865;SDS011;62686;48.984;8.394;2022-08-16T18:06:08;2.53;;;2.05;;
38865;SDS011;62686;48.984;8.394;2022-08-16T18:08:38;4.72;;;2.80;;
38865;SDS011;62686;48.984;8.394;2022-08-16T18:11:07;2.90;;;2.50;;
38865;SDS011;62686;48.984;8.394;2022-08-16T18:13:36;3.50;;;2.53;;
38865;SDS011;62686;48.984;8.394;2022-08-16T18:16:08;5.85;;;2.90;;
38865;SDS011;62686;48.984;8.394;2022-08-16T18:18:36;3.60;;;2.80;;
38865;SDS011;62686;48.984;8.394;2022-08-16T18:21:05;2.80;;;2.60;;
38865;SDS011;62686;48.984;8.394;2022-08-16T18:23:50;3.97;;;2.75;;
38865;SDS011;62686;48.984;8.394;2022-08-16T18:26:18;3.13;;;2.63;;
38865;SDS011;62686;48.984;8.394;2022-08-16T18:28:49;5.07;;;2.80;;
38865;SDS011;62686;48.984;8.394;2022-08-16T18:31:17;3.78;;;2.55;;
38865;SDS011;62686;48.984;8.394;2022-08-16T18:33:45;4.80;;;2.63;;
38865;SDS011;62686;48.984;8.394;2022-08-16T18:36:14;7.07;;;2.72;;
38865;SDS011;62686;48.984;8.394;2022-08-16T18:38:43;4.00;;;2.42;;
38865;SDS011;62686;48.984;8.394;2022-08-16T18:41:11;7.68;;;2.60;;
38865;SDS011;62686;48.984;8.394;2022-08-16T18:43:39;3.83;;;2.90;;
38865;SDS011;62686;48.984;8.394;2022-08-16T18:46:09;3.63;;;2.90;;
38865;SDS011;62686;48.984;8.394;2022-08-16T18:48:37;3.00;;;2.70;;
38865;SDS011;62686;48.984;8.394;2022-08-16T18:51:06;5.07;;;3.00;;
38865;SDS011;62686;48.984;8.394;2022-08-16T18:53:36;6.25;;;3.10;;
38865;SDS011;62686;48.984;8.394;2022-08-16T18:56:05;7.35;;;2.85;;
38865;SDS011;62686;48.984;8.394;2022-08-16T18:58:33;13.38;;;3.42;;
38865;SDS011;62686;48.984;8.394;2022-08-16T19:01:01;4.07;;;3.40;;
38865;SDS011;62686;48.984;8.394;2022-08-16T19:03:31;6.47;;;3.38;;
38865;SDS011;62686;48.984;8.394;2022-08-16T19:06:00;5.45;;;3.13;;
38865;SDS011;62686;48.984;8.394;2022-08-16T19:08:31;5.38;;;3.35;;
38865;SDS011;62686;48.984;8.394;2022-08-16T19:11:01;6.15;;;3.25;;
38865;SDS011;62686;48.984;8.394;2022-08-16T19:13:30;8.73;;;3.33;;
38865;SDS011;62686;48.984;8.394;2022-08-16T19:16:00;6.68;;;2.92;;
38865;SDS011;62686;48.984;8.394;2022-08-16T19:18:30;5.97;;;3.65;;
38865;SDS011;62686;48.984;8.394;2022-08-16T19:20:59;7.63;;;3.40;;
38865;SDS011;62686;48.984;8.394;2022-08-16T19:23:29;8.32;;;3.88;;
38865;SDS011;62686;48.984;8.394;2022-08-16T19:26:02;7.72;;;3.88;;
38865;SDS011;62686;48.984;8.394;2022-08-16T19:28:34;10.93;;;3.85;;
38865;SDS011;62686;48.984;8.394;2022-08-16T19:31:06;6.85;;;3.40;;
38865;SDS011;62686;48.984;8.394;2022-08-16T19:33:39;4.00;;;2.78;;
38865;SDS011;62686;48.984;8.394;2022-08-16T19:36:09;7.05;;;3.45;;
38865;SDS011;62686;48.984;8.394;2022-08-16T19:38:37;8.48;;;3.45;;
38865;SDS011;62686;48.984;8.394;2022-08-16T19:41:05;5.43;;;3.72;;
38865;SDS011;62686;48.984;8.394;2022-08-16T19:43:34;5.53;;;3.50;;
38865;SDS011;62686;48.984;8.394;2022-08-16T19:46:02;8.18;;;4.10;;
38865;SDS011;62686;48.984;8.394;2022-08-16T19:48:30;5.07;;;4.07;;
38865;SDS011;62686;48.984;8.394;2022-08-16T19:51:00;6.40;;;3.72;;
38865;SDS011;62686;48.984;8.394;2022-08-16T19:53:28;7.50;;;3.92;;
38865;SDS011;62686;48.984;8.394;2022-08-16T19:55:57;6.25;;;3.88;;
38865;SDS011;62686;48.984;8.394;2022-08-16T19:58:25;5.63;;;3.28;;
38865;SDS011;62686;48.984;8.394;2022-08-16T20:00:53;9.05;;;3.50;;
38865;SDS011;62686;48.984;8.394;2022-08-16T20:03:22;5.28;;;3.47;;
38865;SDS011;62686;48.984;8.394;2022-08-16T20:05:51;6.85;;;3.30;;
38865;SDS011;62686;48.984;8.394;2022-08-16T20:08:21;7.43;;;3.85;;
38865;SDS011;62686;48.984;8.394;2022-08-16T20:10:49;5.65;;;4.07;;
38865;SDS011;62686;48.984;8.394;2022-08-16T20:13:18;6.13;;;4.30;;
38865;SDS011;62686;48.984;8.394;2022-08-16T20:15:48;7.25;;;3.90;;
38865;SDS011;62686;48.984;8.394;2022-08-16T20:18:18;8.02;;;3.88;;
38865;SDS011;62686;48.984;8.394;2022-08-16T20:20:46;6.15;;;3.88;;
38865;SDS011;62686;48.984;8.394;2022-08-16T20:23:15;5.70;;;3.70;;
38865;SDS011;62686;48.984;8.394;2022-08-16T20:25:50;8.68;;;3.60;;
38865;SDS011;62686;48.984;8.394;2022-08-16T20:28:20;7.78;;;3.63;;
38865;SDS011;62686;48.984;8.394;2022-08-16T20:30:49;4.20;;;3.50;;
38865;SDS011;62686;48.984;8.394;2022-08-16T20:33:17;6.55;;;3.70;;
38865;SDS011;62686;48.984;8.394;2022-08-16T20:35:48;3.92;;;3.30;;
38865;SDS011;62686;48.984;8.394;2022-08-16T20:38:16;4.43;;;3.60;;
38865;SDS011;62686;48.984;8.394;2022-08-16T20:40:45;5.68;;;3.55;;
38865;SDS011;62686;48.984;8.394;2022-08-16T20:43:15;6.85;;;3.65;;
38865;SDS011;62686;48.984;8.394;2022-08-16T20:45:45;4.82;;;3.65;;
38865;SDS011;62686;48.984;8.394;2022-08-16T20:48:13;7.00;;;4.03;;
38865;SDS011;62686;48.984;8.394;2022-08-16T20:50:42;6.45;;;3.67;;
38865;SDS011;62686;48.984;8.394;2022-08-16T20:53:10;5.20;;;3.80;;
38865;SDS011;62686;48.984;8.394;2022-08-16T20:55:39;4.57;;;3.50;;
38865;SDS011;62686;48.984;8.394;2022-08-16T20:58:09;5.22;;;3.63;;
38865;SDS011;62686;48.984;8.394;2022-08-16T21:00:39;5.00;;;3.58;;
38865;SDS011;62686;48.984;8.394;2022-08-16T21:03:08;3.90;;;3.50;;
38865;SDS011;62686;48.984;8.394;2022-08-16T21:05:37;7.97;;;4.18;;
38865;SDS011;62686;48.984;8.394;2022-08-16T21:08:06;4.40;;;3.60;;
38865;SDS011;62686;48.984;8.394;2022-08-16T21:10:35;4.20;;;3.78;;
38865;SDS011;62686;48.984;8.394;2022-08-16T21:13:03;6.88;;;4.32;;
38865;SDS011;62686;48.984;8.394;2022-08-16T21:15:33;5.90;;;4.00;;
38865;SDS011;62686;48.984;8.394;2022-08-16T21:18:03;6.85;;;4.13;;
38865;SDS011;62686;48.984;8.394;2022-08-16T21:20:31;5.70;;;3.88;;
38865;SDS011;62686;48.984;8.394;2022-08-16T21:23:01;6.28;;;4.38;;
38865;SDS011;62686;48.984;8.394;2022-08-16T21:25:32;6.75;;;4.20;;
38865;SDS011;62686;48.984;8.394;2022-08-16T21:28:01;6.22;;;3.95;;
38865;SDS011;62686;48.984;8.394;2022-08-16T21:30:30;7.97;;;4.13;;
38865;SDS011;62686;48.984;8.394;2022-08-16T21:32:59;8.82;;;4.30;;
38865;SDS011;62686;48.984;8.394;2022-08-16T21:35:30;7.00;;;4.57;;
38865;SDS011;62686;48.984;8.394;2022-08-16T21:37:59;6.07;;;4.32;;
38865;SDS011;62686;48.984;8.394;2022-08-16T21:40:28;7.43;;;4.97;;
38865;SDS011;62686;48.984;8.394;2022-08-16T21:43:03;5.45;;;4.40;;
38865;SDS011;62686;48.984;8.394;2022-08-16T21:45:33;5.32;;;4.82;;
38865;SDS011;62686;48.984;8.394;2022-08-16T21:48:03;6.95;;;4.55;;
38865;SDS011;62686;48.984;8.394;2022-08-16T21:50:33;6.57;;;4.55;;
38865;SDS011;62686;48.984;8.394;2022-08-16T21:53:03;5.05;;;4.53;;
38865;SDS011;62686;48.984;8.394;2022-08-16T21:55:33;4.43;;;4.00;;
38865;SDS011;62686;48.984;8.394;2022-08-16T21:58:02;5.13;;;4.53;;
38865;SDS011;62686;48.984;8.394;2022-08-16T22:00:31;4.82;;;4.40;;
38865;SDS011;62686;48.984;8.394;2022-08-16T22:03:01;6.45;;;4.38;;
38865;SDS011;62686;48.984;8.394;2022-08-16T22:05:32;6.47;;;4.53;;
38865;SDS011;62686;48.984;8.394;2022-08-16T22:08:01;5.63;;;4.93;;
38865;SDS011;62686;48.984;8.394;2022-08-16T22:10:30;5.97;;;4.50;;
38865;SDS011;62686;48.984;8.394;2022-08-16T22:13:02;5.05;;;4.55;;
38865;SDS011;62686;48.984;8.394;2022-08-16T22:15:31;7.07;;;4.43;;
38865;SDS011;62686;48.984;8.394;2022-08-16T22:17:59;6.63;;;4.57;;
38865;SDS011;62686;48.984;8.394;2022-08-16T22:20:29;5.97;;;4.45;;
38865;SDS011;62686;48.984;8.394;2022-08-16T22:23:07;4.97;;;4.40;;
38865;SDS011;62686;48.984;8.394;2022-08-16T22:25:37;8.45;;;4.57;;
38865;SDS011;62686;48.984;8.394;2022-08-16T22:28:09;6.20;;;4.60;;
38865;SDS011;62686;48.984;8.394;2022-08-16T22:30:37;5.18;;;4.47;;
38865;SDS011;62686;48.984;8.394;2022-08-16T22:33:06;8.52;;;4.40;;
38865;SDS011;62686;48.984;8.394;2022-08-16T22:35:41;5.88;;;4.57;;
38865;SDS011;62686;48.984;8.394;2022-08-16T22:38:10;4.95;;;4.28;;
38865;SDS011;62686;48.984;8.394;2022-08-16T22:40:39;5.32;;;4.70;;
38865;SDS011;62686;48.984;8.394;2022-08-16T22:43:08;4.75;;;4.35;;
38865;SDS011;62686;48.984;8.394;2022-08-16T22:45:37;5.28;;;4.70;;
38865;SDS011;62686;48.984;8.394;2022-08-16T22:48:06;5.20;;;4.63;;
38865;SDS011;62686;48.984;8.394;2022-08-16T22:50:35;6.32;;;4.43;;
38865;SDS011;62686;48.984;8.394;2022-08-16T22:53:04;6.38;;;4.68;;
38865;SDS011;62686;48.984;8.394;2022-08-16T22:55:34;6.07;;;4.97;;
38865;SDS011;62686;48.984;8.394;2022-08-16T22:58:03;5.13;;;4.63;;
38865;SDS011;62686;48.984;8.394;2022-08-16T23:00:32;5.82;;;4.53;;
38865;SDS011;62686;48.984;8.394;2022-08-16T23:03:04;9.10;;;4.85;;
38865;SDS011;62686;48.984;8.394;2022-08-16T23:05:35;5.15;;;4.65;;
38865;SDS011;62686;48.984;8.394;2022-08-16T23:08:07;5.68;;;4.72;;
38865;SDS011;62686;48.984;8.394;2022-08-16T23:10:39;5.22;;;4.68;;
38865;SDS011;62686;48.984;8.394;2022-08-16T23:13:07;5.45;;;4.63;;
38865;SDS011;62686;48.984;8.394;2022-08-16T23:15:40;5.18;;;4.70;;
38865;SDS011;62686;48.984;8.394;2022-08-16T23:18:11;7.47;;;5.03;;
38865;SDS011;62686;48.984;8.394;2022-08-16T23:20:41;6.50;;;4.60;;
38865;SDS011;62686;48.984;8.394;2022-08-16T23:23:11;6.43;;;4.57;;
38865;SDS011;62686;48.984;8.394;2022-08-16T23:25:42;6.53;;;4.90;;
38865;SDS011;62686;48.984;8.394;2022-08-16T23:28:12;9.20;;;5.20;;
38865;SDS011;62686;48.984;8.394;2022-08-16T23:30:41;9.05;;;5.30;;
38865;SDS011;62686;48.984;8.394;2022-08-16T23:33:10;5.60;;;4.95;;
38865;SDS011;62686;48.984;8.394;2022-08-16T23:35:41;6.95;;;5.13;;
38865;SDS011;62686;48.984;8.394;2022-08-16T23:38:12;8.40;;;4.70;;
38865;SDS011;62686;48.984;8.394;2022-08-16T23:40:41;5.55;;;4.90;;
38865;SDS011;62686;48.984;8.394;2022-08-16T23:43:10;7.35;;;5.10;;
38865;SDS011;62686;48.984;8.394;2022-08-16T23:45:40;6.78;;;5.20;;
38865;SDS011;62686;48.984;8.394;2022-08-16T23:48:10;5.38;;;4.88;;
38865;SDS011;62686;48.984;8.394;2022-08-16T23:50:40;5.75;;;5.07;;
38865;SDS011;62686;48.984;8.394;2022-08-16T23:53:10;7.10;;;5.15;;
38865;SDS011;62686;48.984;8.394;2022-08-16T23:55:43;5.40;;;4.88;;
38865;SDS011;62686;48.984;8.394;2022-08-16T23:58:13;5.28;;;4.78;;
